createdAt,value
2023-04-29T00:00:12.149Z,8.57
2023-04-29T00:02:42.072Z,10.52
2023-04-29T00:05:11.005Z,8.23
2023-04-29T00:07:39.379Z,6.57
2023-04-29T00:10:08.507Z,8.75
2023-04-29T00:12:38.058Z,6.88
2023-04-29T00:15:07.016Z,10.30
2023-04-29T00:17:35.338Z,10.85
2023-04-29T00:20:04.041Z,11.35
2023-04-29T00:22:32.202Z,8.32
2023-04-29T00:25:02.075Z,9.05
2023-04-29T00:27:30.278Z,7.80
2023-04-29T00:29:59.842Z,6.40
2023-04-29T00:32:28.230Z,8.65
2023-04-29T00:34:57.377Z,10.52
2023-04-29T00:37:25.720Z,8.77
2023-04-29T00:39:54.014Z,8.10
2023-04-29T00:42:22.640Z,12.93
2023-04-29T00:44:50.818Z,8.48
2023-04-29T00:47:20.360Z,8.77
2023-04-29T00:49:48.669Z,10.95
2023-04-29T00:52:18.050Z,10.10
2023-04-29T00:54:46.590Z,9.77
2023-04-29T00:57:15.975Z,7.07
2023-04-29T00:59:45.716Z,10.63
2023-04-29T01:02:14.888Z,7.07
2023-04-29T01:04:44.663Z,10.57
2023-04-29T01:07:18.160Z,8.43
2023-04-29T01:09:57.919Z,9.63
2023-04-29T01:12:31.714Z,12.68
2023-04-29T01:15:06.883Z,11.00
2023-04-29T01:17:41.351Z,11.48
2023-04-29T01:20:13.197Z,10.20
2023-04-29T01:22:41.819Z,9.95
2023-04-29T01:25:12.996Z,11.55
2023-04-29T01:28:11.635Z,11.63
2023-04-29T01:30:48.262Z,10.13
2023-04-29T01:33:24.194Z,7.95
2023-04-29T01:36:06.941Z,9.27
2023-04-29T01:38:41.956Z,8.10
2023-04-29T01:41:17.329Z,10.27
2023-04-29T01:43:52.069Z,11.80
2023-04-29T01:46:25.581Z,11.48
2023-04-29T01:48:57.650Z,25.25
2023-04-29T01:51:25.878Z,94.43
2023-04-29T01:53:54.326Z,39.55
2023-04-29T01:56:24.425Z,11.63
2023-04-29T01:59:08.102Z,6.20
2023-04-29T02:01:58.727Z,6.68
2023-04-29T02:04:28.604Z,7.60
2023-04-29T02:06:57.077Z,8.73
2023-04-29T02:09:25.854Z,9.52
2023-04-29T02:12:04.102Z,6.75
2023-04-29T02:14:32.301Z,10.50
2023-04-29T02:17:00.767Z,9.68
2023-04-29T02:19:30.129Z,10.48
2023-04-29T02:21:58.536Z,10.32
2023-04-29T02:24:27.579Z,7.90
2023-04-29T02:26:56.036Z,9.50
2023-04-29T02:29:26.608Z,9.63
2023-04-29T02:31:56.022Z,9.27
2023-04-29T02:34:24.414Z,8.38
2023-04-29T02:36:53.568Z,9.45
2023-04-29T02:39:23.247Z,9.55
2023-04-29T02:41:51.442Z,8.57
2023-04-29T02:44:19.625Z,8.35
2023-04-29T02:46:49.390Z,10.13
2023-04-29T02:49:17.637Z,9.10
2023-04-29T02:51:49.718Z,8.20
2023-04-29T02:54:18.106Z,9.65
2023-04-29T02:56:46.765Z,10.57
2023-04-29T02:59:15.116Z,10.55
2023-04-29T03:01:43.579Z,7.32
2023-04-29T03:04:14.871Z,9.35
2023-04-29T03:06:43.697Z,8.13
2023-04-29T03:09:14.432Z,9.52
2023-04-29T03:11:47.829Z,8.43
2023-04-29T03:14:17.041Z,9.35
2023-04-29T03:16:45.377Z,8.10
2023-04-29T03:19:15.187Z,11.48
2023-04-29T03:21:43.448Z,13.50
2023-04-29T03:24:11.709Z,9.10
2023-04-29T03:26:43.477Z,9.35
2023-04-29T03:29:11.869Z,10.20
2023-04-29T03:31:40.250Z,8.27
2023-04-29T03:34:08.629Z,13.68
2023-04-29T03:36:42.615Z,7.88
2023-04-29T03:39:11.869Z,11.52
2023-04-29T03:41:40.286Z,7.70
2023-04-29T03:44:10.267Z,8.77
2023-04-29T03:46:38.609Z,12.02
2023-04-29T03:49:06.880Z,11.07
2023-04-29T03:51:35.644Z,8.82
2023-04-29T03:54:14.200Z,14.27
2023-04-29T03:56:43.223Z,9.63
2023-04-29T03:59:11.471Z,10.75
2023-04-29T04:01:40.650Z,10.00
2023-04-29T04:04:09.378Z,12.05
2023-04-29T04:06:41.454Z,11.93
2023-04-29T04:09:10.223Z,10.15
2023-04-29T04:11:42.088Z,14.13
2023-04-29T04:14:10.395Z,13.02
2023-04-29T04:16:39.376Z,11.63
2023-04-29T04:19:07.646Z,8.32
2023-04-29T04:21:42.393Z,13.48
2023-04-29T04:24:12.058Z,10.38
2023-04-29T04:26:42.533Z,11.35
2023-04-29T04:29:20.338Z,11.73
2023-04-29T04:31:55.904Z,11.02
2023-04-29T04:34:26.347Z,10.85
2023-04-29T04:36:56.755Z,11.20
2023-04-29T04:39:25.127Z,12.85
2023-04-29T04:41:56.350Z,12.85
2023-04-29T04:44:25.088Z,11.98
2023-04-29T04:47:04.038Z,11.48
2023-04-29T04:49:47.037Z,13.32
2023-04-29T04:52:15.620Z,9.32
2023-04-29T04:54:49.812Z,11.57
2023-04-29T04:57:26.293Z,10.50
2023-04-29T04:59:56.926Z,10.82
2023-04-29T05:02:25.919Z,11.30
2023-04-29T05:04:54.699Z,10.38
2023-04-29T05:07:27.048Z,11.13
2023-04-29T05:10:02.735Z,13.20
2023-04-29T05:12:35.221Z,11.82
2023-04-29T05:15:05.241Z,10.38
2023-04-29T05:17:34.841Z,13.82
2023-04-29T05:20:03.187Z,11.55
2023-04-29T05:22:34.912Z,11.15
2023-04-29T05:25:03.781Z,13.10
2023-04-29T05:27:36.420Z,15.10
2023-04-29T05:30:08.997Z,9.65
2023-04-29T05:32:37.908Z,12.73
2023-04-29T05:35:09.553Z,15.73
2023-04-29T05:37:37.832Z,15.18
2023-04-29T05:40:32.951Z,11.52
2023-04-29T05:43:22.358Z,9.68
2023-04-29T05:45:50.938Z,7.63
2023-04-29T05:48:19.186Z,9.90
2023-04-29T05:50:48.553Z,10.85
2023-04-29T05:53:17.105Z,11.40
2023-04-29T05:55:46.452Z,7.43
2023-04-29T05:58:15.041Z,12.75
2023-04-29T06:00:44.873Z,12.10
2023-04-29T06:03:19.756Z,13.80
2023-04-29T06:05:51.116Z,11.05
2023-04-29T06:08:38.232Z,15.15
2023-04-29T06:11:16.039Z,17.42
2023-04-29T06:13:44.533Z,12.73
2023-04-29T06:16:14.506Z,12.85
2023-04-29T06:18:42.753Z,16.15
2023-04-29T06:21:11.161Z,15.98
2023-04-29T06:23:39.387Z,15.70
2023-04-29T06:26:16.742Z,14.80
2023-04-29T06:28:45.032Z,14.95
2023-04-29T06:31:15.450Z,23.00
2023-04-29T06:33:44.835Z,16.05
2023-04-29T06:36:13.440Z,10.98
2023-04-29T06:39:14.160Z,11.85
2023-04-29T06:41:54.246Z,9.13
2023-04-29T06:44:45.074Z,10.80
2023-04-29T06:47:33.578Z,11.52
2023-04-29T06:50:14.810Z,12.60
2023-04-29T06:52:44.967Z,11.80
2023-04-29T06:55:13.285Z,11.35
2023-04-29T06:57:43.814Z,9.65
2023-04-29T07:00:12.624Z,11.98
2023-04-29T07:02:42.339Z,12.52
2023-04-29T07:05:11.170Z,12.95
2023-04-29T07:07:39.631Z,6.43
2023-04-29T07:10:08.688Z,7.75
2023-04-29T07:12:37.258Z,11.57
2023-04-29T07:15:06.834Z,12.73
2023-04-29T07:17:35.080Z,12.25
2023-04-29T07:20:05.697Z,13.05
2023-04-29T07:22:33.996Z,10.05
2023-04-29T07:25:02.271Z,11.73
2023-04-29T07:27:30.596Z,11.73
2023-04-29T07:30:02.122Z,11.90
2023-04-29T07:32:31.701Z,10.55
2023-04-29T07:35:05.459Z,9.82
2023-04-29T07:37:34.060Z,13.88
2023-04-29T07:40:02.364Z,9.57
2023-04-29T07:42:30.701Z,11.90
2023-04-29T07:45:03.733Z,10.25
2023-04-29T07:47:32.079Z,11.63
2023-04-29T07:50:05.826Z,9.50
2023-04-29T07:52:34.956Z,7.60
2023-04-29T07:55:04.000Z,7.85
2023-04-29T07:57:32.345Z,8.50
2023-04-29T08:00:00.738Z,6.65
2023-04-29T08:02:29.280Z,6.63
2023-04-29T08:04:58.321Z,8.48
2023-04-29T08:07:29.709Z,5.82
2023-04-29T08:09:59.750Z,8.55
2023-04-29T08:12:27.996Z,7.25
2023-04-29T08:14:56.585Z,6.85
2023-04-29T08:17:25.369Z,9.30
2023-04-29T08:19:53.672Z,7.20
2023-04-29T08:22:22.243Z,7.43
2023-04-29T08:24:52.364Z,6.63
2023-04-29T08:27:21.406Z,8.00
2023-04-29T08:29:49.618Z,8.05
2023-04-29T08:32:17.866Z,11.30
2023-04-29T08:34:46.088Z,7.38
2023-04-29T08:37:16.953Z,8.80
2023-04-29T08:39:47.977Z,9.27
2023-04-29T08:42:21.481Z,11.13
2023-04-29T08:44:51.572Z,9.00
2023-04-29T08:47:20.377Z,10.23
2023-04-29T08:49:48.739Z,5.85
2023-04-29T08:52:17.129Z,6.65
2023-04-29T08:54:45.533Z,5.75
2023-04-29T08:57:14.488Z,9.85
2023-04-29T08:59:44.571Z,5.30
2023-04-29T09:02:18.156Z,7.15
2023-04-29T09:04:56.624Z,8.48
2023-04-29T09:07:25.384Z,6.75
2023-04-29T09:09:55.100Z,5.63
2023-04-29T09:12:23.341Z,8.80
2023-04-29T09:14:53.191Z,5.70
2023-04-29T09:17:39.005Z,6.28
2023-04-29T09:20:28.053Z,7.70
2023-04-29T09:22:57.742Z,6.40
2023-04-29T09:25:27.296Z,4.65
2023-04-29T09:27:56.155Z,6.45
2023-04-29T09:30:26.742Z,5.93
2023-04-29T09:33:07.582Z,7.22
2023-04-29T09:35:36.208Z,8.38
2023-04-29T09:38:12.729Z,5.40
2023-04-29T09:40:57.666Z,6.90
2023-04-29T09:43:27.849Z,5.07
2023-04-29T09:45:58.074Z,6.22
2023-04-29T09:48:33.639Z,8.45
2023-04-29T09:51:04.454Z,6.72
2023-04-29T09:53:33.368Z,9.57
2023-04-29T09:56:03.616Z,6.00
2023-04-29T09:58:37.040Z,8.05
2023-04-29T10:01:08.170Z,8.73
2023-04-29T10:03:38.406Z,4.70
2023-04-29T10:06:09.699Z,9.02
2023-04-29T10:08:38.190Z,4.57
2023-04-29T10:11:09.255Z,6.30
2023-04-29T10:13:38.896Z,6.50
2023-04-29T10:16:16.821Z,6.15
2023-04-29T10:18:53.314Z,5.43
2023-04-29T10:21:29.686Z,5.82
2023-04-29T10:23:59.880Z,5.07
2023-04-29T10:26:29.898Z,7.13
2023-04-29T10:29:00.062Z,6.95
2023-04-29T10:31:34.410Z,5.07
2023-04-29T10:34:03.275Z,6.13
2023-04-29T10:36:32.177Z,8.68
2023-04-29T10:39:03.794Z,8.88
2023-04-29T10:41:38.890Z,12.77
2023-04-29T10:44:07.182Z,7.93
2023-04-29T10:46:39.508Z,5.22
2023-04-29T10:49:11.673Z,4.38
2023-04-29T10:51:42.482Z,6.97
2023-04-29T10:54:13.511Z,7.40
2023-04-29T10:56:43.796Z,6.72
2023-04-29T10:59:16.468Z,6.03
2023-04-29T11:01:50.787Z,5.00
2023-04-29T11:04:20.143Z,3.97
2023-04-29T11:06:52.318Z,3.50
2023-04-29T11:09:27.349Z,7.43
2023-04-29T11:12:02.992Z,5.80
2023-04-29T11:14:33.585Z,5.93
2023-04-29T11:17:04.339Z,4.45
2023-04-29T11:19:34.110Z,6.50
2023-04-29T11:22:11.769Z,6.13
2023-04-29T11:24:55.364Z,6.80
2023-04-29T11:27:26.433Z,4.72
2023-04-29T11:29:58.458Z,8.32
2023-04-29T11:32:29.305Z,3.72
2023-04-29T11:35:09.413Z,5.63
2023-04-29T11:37:38.749Z,5.57
2023-04-29T11:40:08.729Z,7.65
2023-04-29T11:42:37.757Z,6.03
2023-04-29T11:45:07.642Z,5.50
2023-04-29T11:47:37.296Z,8.05
2023-04-29T11:50:07.814Z,5.85
2023-04-29T11:52:37.847Z,5.95
2023-04-29T11:55:07.064Z,7.20
2023-04-29T11:57:35.839Z,6.07
2023-04-29T12:00:05.751Z,11.75
2023-04-29T12:02:37.258Z,7.82
2023-04-29T12:05:09.242Z,5.07
2023-04-29T12:07:38.331Z,5.68
2023-04-29T12:10:10.888Z,7.47
2023-04-29T12:12:40.823Z,5.65
2023-04-29T12:15:10.598Z,5.75
2023-04-29T12:17:40.641Z,5.55
2023-04-29T12:20:10.572Z,5.90
2023-04-29T12:22:39.135Z,5.65
2023-04-29T12:25:08.642Z,7.88
2023-04-29T12:27:37.297Z,5.72
2023-04-29T12:30:09.490Z,5.30
2023-04-29T12:32:38.611Z,6.13
2023-04-29T12:35:16.601Z,7.10
2023-04-29T12:37:48.855Z,5.20
2023-04-29T12:40:20.171Z,5.05
2023-04-29T12:42:48.456Z,9.25
2023-04-29T12:45:30.465Z,5.68
2023-04-29T12:47:59.139Z,4.97
2023-04-29T12:50:34.355Z,5.72
2023-04-29T12:53:04.648Z,3.58
2023-04-29T12:55:34.364Z,5.40
2023-04-29T12:58:03.568Z,12.00
2023-04-29T13:00:32.249Z,8.73
2023-04-29T13:03:01.394Z,7.63
2023-04-29T13:05:29.816Z,4.57
2023-04-29T13:07:59.378Z,8.45
2023-04-29T13:10:28.337Z,6.90
2023-04-29T13:12:56.833Z,5.07
2023-04-29T13:15:26.878Z,6.85
2023-04-29T13:17:55.668Z,6.80
2023-04-29T13:20:23.988Z,5.55
2023-04-29T13:22:53.195Z,8.18
2023-04-29T13:25:22.856Z,5.82
2023-04-29T13:27:51.103Z,5.18
2023-04-29T13:30:19.278Z,5.07
2023-04-29T13:32:55.232Z,5.70
2023-04-29T13:35:26.866Z,9.32
2023-04-29T13:37:55.056Z,8.35
2023-04-29T13:40:27.910Z,5.75
2023-04-29T13:43:05.607Z,6.55
2023-04-29T13:45:38.975Z,5.35
2023-04-29T13:48:22.892Z,7.25
2023-04-29T13:51:37.287Z,9.27
2023-04-29T14:03:53.736Z,12.23
2023-04-29T14:06:22.117Z,9.55
2023-04-29T14:08:50.430Z,6.15
2023-04-29T14:11:20.780Z,9.15
2023-04-29T14:13:49.083Z,8.65
2023-04-29T14:16:20.079Z,9.38
2023-04-29T14:18:48.266Z,7.97
2023-04-29T14:21:16.873Z,8.10
2023-04-29T14:23:45.042Z,6.85
2023-04-29T14:26:27.339Z,7.45
2023-04-29T14:28:58.392Z,5.47
2023-04-29T14:31:29.054Z,8.68
2023-04-29T14:33:59.029Z,9.15
2023-04-29T14:36:28.133Z,9.45
2023-04-29T14:38:56.448Z,7.95
2023-04-29T14:41:25.213Z,8.00
2023-04-29T14:43:53.391Z,6.93
2023-04-29T14:46:23.347Z,9.90
2023-04-29T14:48:51.566Z,7.38
2023-04-29T14:51:19.726Z,8.70
2023-04-29T14:53:47.914Z,8.85
2023-04-29T14:56:17.838Z,10.45
2023-04-29T14:58:46.017Z,6.80
2023-04-29T15:01:14.478Z,9.57
2023-04-29T15:03:44.968Z,8.13
2023-04-29T15:06:13.961Z,5.85
2023-04-29T15:08:42.245Z,10.45
2023-04-29T15:11:10.384Z,10.07
2023-04-29T15:13:39.136Z,9.88
2023-04-29T15:16:08.380Z,8.10
2023-04-29T15:18:36.684Z,7.90
2023-04-29T15:21:06.627Z,10.73
2023-04-29T15:23:35.047Z,8.70
2023-04-29T15:26:03.246Z,6.45
2023-04-29T15:28:31.517Z,7.88
2023-04-29T15:31:01.823Z,6.80
2023-04-29T15:33:29.996Z,9.07
2023-04-29T15:35:58.731Z,9.70
2023-04-29T15:38:29.480Z,9.77
2023-04-29T15:41:01.010Z,7.30
2023-04-29T15:43:29.593Z,12.98
2023-04-29T15:45:59.678Z,11.30
2023-04-29T15:48:28.047Z,9.05
2023-04-29T15:50:56.249Z,9.38
2023-04-29T15:53:24.617Z,11.55
2023-04-29T15:55:54.649Z,8.35
2023-04-29T15:58:23.045Z,8.70
2023-04-29T16:00:52.315Z,8.75
2023-04-29T16:03:21.184Z,8.05
2023-04-29T16:05:50.947Z,8.60
2023-04-29T16:08:21.606Z,8.77
2023-04-29T16:10:50.592Z,8.75
2023-04-29T16:13:20.291Z,7.13
2023-04-29T16:15:49.576Z,5.78
2023-04-29T16:18:19.159Z,6.95
2023-04-29T16:20:47.344Z,7.55
2023-04-29T16:23:15.560Z,16.35
2023-04-29T16:25:43.714Z,7.82
2023-04-29T16:28:11.926Z,8.70
2023-04-29T16:30:41.609Z,6.35
2023-04-29T16:33:09.783Z,15.35
2023-04-29T16:35:38.098Z,11.70
2023-04-29T16:38:06.292Z,14.73
2023-04-29T16:40:34.490Z,11.32
2023-04-29T16:43:02.817Z,16.75
2023-04-29T16:45:31.423Z,12.35
2023-04-29T16:48:01.597Z,9.00
2023-04-29T16:50:30.067Z,10.20
2023-04-29T16:52:58.253Z,6.60
2023-04-29T16:55:26.724Z,10.30
2023-04-29T16:57:54.938Z,9.45
2023-04-29T17:00:23.347Z,7.85
2023-04-29T17:02:52.856Z,8.30
2023-04-29T17:05:22.535Z,6.60
2023-04-29T17:07:50.699Z,11.68
2023-04-29T17:10:19.009Z,7.57
2023-04-29T17:12:47.246Z,9.13
2023-04-29T17:15:16.452Z,7.57
2023-04-29T17:17:44.898Z,10.98
2023-04-29T17:20:13.884Z,7.47
2023-04-29T17:22:43.624Z,16.58
2023-04-29T17:25:14.878Z,25.30
2023-04-29T17:27:44.507Z,20.20
2023-04-29T17:30:13.969Z,18.85
2023-04-29T17:32:44.232Z,14.02
2023-04-29T17:35:12.636Z,18.98
2023-04-29T17:37:45.347Z,26.38
2023-04-29T17:40:13.751Z,14.43
2023-04-29T17:42:41.916Z,12.98
2023-04-29T17:45:11.304Z,16.05
2023-04-29T17:47:43.304Z,15.95
2023-04-29T17:50:12.218Z,15.75
2023-04-29T17:52:43.381Z,15.02
2023-04-29T17:55:13.092Z,10.70
2023-04-29T17:57:44.151Z,14.32
2023-04-29T18:00:13.429Z,10.10
2023-04-29T18:02:42.230Z,8.82
2023-04-29T18:05:10.736Z,7.22
2023-04-29T18:07:39.152Z,7.15
2023-04-29T18:10:09.126Z,13.07
2023-04-29T18:12:38.672Z,6.00
2023-04-29T18:15:09.593Z,6.93
2023-04-29T18:17:38.177Z,5.43
2023-04-29T18:20:09.984Z,7.97
2023-04-29T18:22:40.295Z,7.13
2023-04-29T18:25:09.155Z,8.00
2023-04-29T18:27:38.723Z,8.63
2023-04-29T18:30:10.208Z,6.35
2023-04-29T18:32:39.917Z,8.05
2023-04-29T18:35:11.176Z,9.48
2023-04-29T18:37:39.931Z,7.47
2023-04-29T18:40:10.785Z,12.32
2023-04-29T18:42:40.512Z,10.85
2023-04-29T18:45:09.839Z,32.10
2023-04-29T18:47:38.443Z,41.55
2023-04-29T18:50:08.338Z,37.38
2023-04-29T18:52:36.793Z,20.88
2023-04-29T18:55:05.973Z,21.80
2023-04-29T18:57:34.536Z,19.08
2023-04-29T19:00:07.576Z,16.67
2023-04-29T19:02:36.069Z,15.65
2023-04-29T19:05:09.092Z,14.40
2023-04-29T19:07:37.304Z,19.67
2023-04-29T19:10:06.697Z,16.67
2023-04-29T19:12:35.164Z,15.32
2023-04-29T19:15:05.537Z,23.05
2023-04-29T19:17:33.813Z,28.83
2023-04-29T19:20:02.048Z,25.58
2023-04-29T19:22:30.539Z,31.15
2023-04-29T19:24:58.747Z,27.70
2023-04-29T19:27:26.998Z,26.60
2023-04-29T19:29:55.393Z,25.30
2023-04-29T19:32:30.148Z,19.60
2023-04-29T19:34:58.564Z,17.35
2023-04-29T19:37:27.740Z,15.63
2023-04-29T19:39:56.238Z,16.13
2023-04-29T19:42:24.604Z,14.65
2023-04-29T19:44:52.807Z,14.50
2023-04-29T19:47:21.430Z,15.82
2023-04-29T19:49:52.114Z,13.82
2023-04-29T19:52:20.657Z,15.10
2023-04-29T19:54:48.820Z,16.83
2023-04-29T19:57:16.996Z,11.32
2023-04-29T19:59:45.395Z,12.32
2023-04-29T20:02:14.074Z,12.63
2023-04-29T20:04:42.314Z,11.70
2023-04-29T20:07:11.908Z,12.85
2023-04-29T20:09:44.972Z,14.35
2023-04-29T20:12:13.257Z,14.30
2023-04-29T20:14:41.756Z,11.88
2023-04-29T20:17:09.930Z,16.63
2023-04-29T20:19:40.435Z,12.85
2023-04-29T20:22:08.643Z,14.52
2023-04-29T20:24:38.471Z,20.05
2023-04-29T20:27:07.124Z,18.75
2023-04-29T20:29:35.495Z,20.67
2023-04-29T20:32:05.946Z,17.38
2023-04-29T20:34:34.502Z,12.40
2023-04-29T20:37:02.825Z,21.23
2023-04-29T20:39:31.050Z,22.10
2023-04-29T20:42:03.149Z,24.80
2023-04-29T20:44:31.464Z,25.67
2023-04-29T20:46:59.773Z,20.00
2023-04-29T20:49:31.580Z,26.25
2023-04-29T20:52:01.768Z,19.30
2023-04-29T20:54:30.116Z,18.70
2023-04-29T20:56:58.319Z,14.52
2023-04-29T20:59:30.519Z,15.43
2023-04-29T21:01:58.824Z,17.90
2023-04-29T21:04:26.990Z,18.05
2023-04-29T21:06:55.196Z,17.85
2023-04-29T21:09:23.382Z,14.75
2023-04-29T21:11:51.538Z,21.60
2023-04-29T21:14:19.801Z,22.95
2023-04-29T21:16:49.721Z,17.75
2023-04-29T21:19:17.874Z,13.65
2023-04-29T21:21:46.053Z,18.23
2023-04-29T21:24:14.481Z,16.17
2023-04-29T21:26:43.776Z,12.23
2023-04-29T21:29:12.171Z,12.80
2023-04-29T21:31:40.506Z,16.52
2023-04-29T21:34:10.110Z,10.40
2023-04-29T21:36:38.465Z,13.20
2023-04-29T21:39:07.140Z,15.10
2023-04-29T21:41:38.274Z,14.48
2023-04-29T21:44:07.827Z,13.05
2023-04-29T21:46:37.115Z,17.05
2023-04-29T21:49:05.949Z,12.45
2023-04-29T21:51:35.826Z,12.15
2023-04-29T21:54:08.228Z,19.85
2023-04-29T21:56:36.544Z,47.70
2023-04-29T21:59:04.848Z,58.60
2023-04-29T22:01:59.896Z,59.30
2023-04-29T22:04:28.975Z,28.38
2023-04-29T22:06:59.379Z,27.80
2023-04-29T22:09:27.747Z,15.02
2023-04-29T22:11:58.216Z,15.65
2023-04-29T22:14:27.123Z,14.18
2023-04-29T22:16:55.329Z,15.13
2023-04-29T22:19:23.572Z,14.55
2023-04-29T22:21:51.905Z,14.55
2023-04-29T22:24:21.406Z,16.35
2023-04-29T22:26:49.575Z,13.23
2023-04-29T22:29:19.227Z,12.15
2023-04-29T22:31:47.427Z,19.73
2023-04-29T22:34:15.718Z,13.63
2023-04-29T22:36:45.828Z,16.20
2023-04-29T22:39:14.026Z,13.60
2023-04-29T22:41:43.606Z,17.00
2023-04-29T22:44:11.839Z,15.45
2023-04-29T22:46:40.032Z,18.77
2023-04-29T22:49:08.184Z,16.27
2023-04-29T22:51:36.348Z,15.52
2023-04-29T22:54:06.740Z,17.95
2023-04-29T22:56:35.031Z,14.85
2023-04-29T22:59:04.627Z,21.48
2023-04-29T23:01:32.795Z,20.85
2023-04-29T23:04:00.972Z,25.80
2023-04-29T23:06:29.293Z,29.23
2023-04-29T23:08:57.457Z,28.40
2023-04-29T23:11:26.637Z,26.10
2023-04-29T23:13:54.840Z,25.35
2023-04-29T23:16:24.501Z,25.42
2023-04-29T23:18:52.801Z,28.23
2023-04-29T23:21:20.941Z,23.83
2023-04-29T23:23:49.141Z,28.13
2023-04-29T23:26:17.452Z,32.25
2023-04-29T23:28:45.791Z,24.55
2023-04-29T23:31:13.996Z,29.25
2023-04-29T23:33:47.116Z,32.95
2023-04-29T23:36:15.455Z,26.17
2023-04-29T23:38:43.670Z,26.45
2023-04-29T23:41:11.866Z,23.92
2023-04-29T23:43:40.058Z,20.02
2023-04-29T23:46:08.453Z,18.73
2023-04-29T23:48:36.656Z,18.45
2023-04-29T23:51:06.895Z,18.48
2023-04-29T23:53:35.088Z,14.65
2023-04-29T23:56:03.322Z,16.02
2023-04-29T23:58:31.512Z,12.77
